createdAt,value
2019-05-26T00:01:33.792Z,3.69
2019-05-26T00:06:41.468Z,3.73
2019-05-26T00:11:49.086Z,3.75
2019-05-26T00:16:56.780Z,3.98
2019-05-26T00:22:04.390Z,3.84
2019-05-26T00:27:12.036Z,3.93
2019-05-26T00:32:19.648Z,4.24
2019-05-26T00:37:27.274Z,4.55
2019-05-26T00:42:34.864Z,4.32
2019-05-26T00:47:42.508Z,4.83
2019-05-26T00:52:50.121Z,4.74
2019-05-26T00:57:57.793Z,4.90
2019-05-26T01:03:05.381Z,5.68
2019-05-26T01:08:13.072Z,5.75
2019-05-26T01:13:20.668Z,5.60
2019-05-26T01:18:28.363Z,5.91
2019-05-26T01:23:35.978Z,6.03
2019-05-26T01:28:43.623Z,6.15
2019-05-26T01:33:51.257Z,6.59
2019-05-26T01:38:58.880Z,7.12
2019-05-26T01:44:06.477Z,7.32
2019-05-26T01:49:14.132Z,7.09
2019-05-26T01:54:21.739Z,7.40
2019-05-26T01:59:29.436Z,7.36
2019-05-26T02:04:37.054Z,8.51
2019-05-26T02:09:44.752Z,8.50
2019-05-26T02:14:52.361Z,8.98
2019-05-26T02:20:00.157Z,9.68
2019-05-26T02:25:07.759Z,10.05
2019-05-26T02:30:15.420Z,9.73
2019-05-26T02:35:23.026Z,10.73
2019-05-26T02:40:30.702Z,11.06
2019-05-26T02:45:38.382Z,12.42
2019-05-26T02:50:45.990Z,12.02
2019-05-26T02:55:53.613Z,12.21
2019-05-26T03:01:01.283Z,11.99
2019-05-26T03:06:08.898Z,12.74
2019-05-26T03:11:16.530Z,12.71
2019-05-26T03:16:24.140Z,12.74
2019-05-26T03:21:31.813Z,13.35
2019-05-26T03:26:39.444Z,14.04
2019-05-26T03:31:47.088Z,15.06
2019-05-26T03:36:54.711Z,16.55
2019-05-26T03:42:02.395Z,18.53
2019-05-26T03:47:10.029Z,17.68
2019-05-26T03:52:17.674Z,17.62
2019-05-26T03:57:25.298Z,18.97
2019-05-26T04:02:32.984Z,20.20
2019-05-26T04:07:40.582Z,17.79
2019-05-26T04:12:48.267Z,18.37
2019-05-26T04:17:55.892Z,18.27
2019-05-26T04:23:03.585Z,18.40
2019-05-26T04:28:11.289Z,18.20
2019-05-26T04:33:18.866Z,18.38
2019-05-26T04:38:26.583Z,21.02
2019-05-26T04:43:34.153Z,18.50
2019-05-26T04:48:41.758Z,17.16
2019-05-26T04:53:49.455Z,18.23
2019-05-26T04:58:57.167Z,18.38
2019-05-26T05:04:04.787Z,18.57
2019-05-26T05:09:12.383Z,20.14
2019-05-26T05:14:20.030Z,19.77
2019-05-26T05:19:27.635Z,20.12
2019-05-26T05:24:35.270Z,20.92
2019-05-26T05:29:42.884Z,23.91
2019-05-26T05:34:50.547Z,23.57
2019-05-26T05:39:58.226Z,24.34
2019-05-26T05:45:05.834Z,25.32
2019-05-26T05:50:13.438Z,25.56
2019-05-26T05:55:21.085Z,25.20
2019-05-26T06:00:28.688Z,24.51
2019-05-26T06:05:36.332Z,24.32
2019-05-26T06:10:43.907Z,22.70
2019-05-26T06:15:51.599Z,23.45
2019-05-26T06:20:59.196Z,23.83
2019-05-26T06:26:06.897Z,23.01
2019-05-26T06:31:14.498Z,19.12
2019-05-26T06:36:22.137Z,18.14
2019-05-26T06:41:33.759Z,17.98
2019-05-26T06:46:36.938Z,15.38
2019-05-26T06:51:44.529Z,14.96
2019-05-26T06:56:52.142Z,14.37
2019-05-26T07:01:59.744Z,14.28
2019-05-26T07:07:07.416Z,13.99
2019-05-26T07:12:15.013Z,14.32
2019-05-26T07:17:22.648Z,15.19
2019-05-26T07:22:30.252Z,14.54
2019-05-26T07:27:37.867Z,14.27
2019-05-26T07:32:45.489Z,13.82
2019-05-26T07:37:53.177Z,13.76
2019-05-26T07:43:00.792Z,14.21
2019-05-26T07:48:08.425Z,13.05
2019-05-26T07:53:16.018Z,11.00
2019-05-26T07:58:23.784Z,11.51
2019-05-26T08:03:31.371Z,10.36
2019-05-26T08:08:38.985Z,9.30
2019-05-26T08:13:46.559Z,10.03
2019-05-26T08:18:54.194Z,10.07
2019-05-26T08:24:01.813Z,10.22
2019-05-26T08:29:09.507Z,10.49
2019-05-26T08:34:17.119Z,10.75
2019-05-26T08:39:24.788Z,10.12
2019-05-26T08:44:32.405Z,10.97
2019-05-26T08:49:40.027Z,9.75
2019-05-26T08:54:47.646Z,9.86
2019-05-26T08:59:55.279Z,9.88
2019-05-26T09:05:02.884Z,9.89
2019-05-26T09:10:10.665Z,9.56
2019-05-26T09:15:18.239Z,9.35
2019-05-26T09:20:25.881Z,8.67
2019-05-26T09:25:33.516Z,8.50
2019-05-26T09:30:41.191Z,8.51
2019-05-26T09:35:48.778Z,8.00
2019-05-26T09:40:56.469Z,8.22
2019-05-26T09:46:04.053Z,7.86
2019-05-26T09:51:11.682Z,7.46
2019-05-26T09:56:19.275Z,7.19
2019-05-26T10:01:26.946Z,6.79
2019-05-26T10:06:34.549Z,6.55
2019-05-26T10:11:42.185Z,6.23
2019-05-26T10:16:49.806Z,5.93
2019-05-26T10:21:57.443Z,5.75
2019-05-26T10:27:05.020Z,7.97
2019-05-26T10:32:12.698Z,5.70
2019-05-26T10:37:20.301Z,5.06
2019-05-26T10:42:27.979Z,5.08
2019-05-26T10:47:35.592Z,4.80
2019-05-26T10:52:43.238Z,5.01
2019-05-26T10:57:50.836Z,4.75
2019-05-26T11:02:58.476Z,4.72
2019-05-26T11:08:06.094Z,4.89
2019-05-26T11:13:13.745Z,4.53
2019-05-26T11:18:21.353Z,4.51
2019-05-26T11:23:29.046Z,4.63
2019-05-26T11:28:36.655Z,4.42
2019-05-26T11:33:44.310Z,4.19
2019-05-26T11:38:51.930Z,4.51
2019-05-26T11:43:59.548Z,4.51
2019-05-26T11:49:07.136Z,4.67
2019-05-26T11:54:14.778Z,4.63
2019-05-26T11:59:22.379Z,4.76
2019-05-26T12:04:30.073Z,4.54
2019-05-26T12:09:37.683Z,4.59
2019-05-26T12:14:45.362Z,4.75
2019-05-26T12:19:52.949Z,4.74
2019-05-26T12:25:00.682Z,5.18
2019-05-26T12:30:08.236Z,5.45
2019-05-26T12:35:15.887Z,5.39
2019-05-26T12:40:23.505Z,5.24
2019-05-26T12:45:31.189Z,5.93
2019-05-26T12:50:38.774Z,5.53
2019-05-26T12:55:46.448Z,5.34
2019-05-26T13:00:55.138Z,5.60
2019-05-26T13:06:01.265Z,5.37
2019-05-26T13:11:08.848Z,5.27
2019-05-26T13:16:16.599Z,5.05
2019-05-26T13:21:24.194Z,5.56
2019-05-26T13:26:31.871Z,5.16
2019-05-26T13:31:39.463Z,5.32
2019-05-26T13:36:47.139Z,5.34
2019-05-26T13:41:54.722Z,5.71
2019-05-26T13:47:02.398Z,5.25
2019-05-26T13:52:09.998Z,5.32
2019-05-26T13:57:17.675Z,5.20
2019-05-26T14:02:25.278Z,5.20
2019-05-26T14:07:32.927Z,5.16
2019-05-26T14:12:40.541Z,5.13
2019-05-26T14:17:48.210Z,4.84
2019-05-26T14:22:55.812Z,4.76
2019-05-26T14:28:03.544Z,4.74
2019-05-26T14:33:11.134Z,4.72
2019-05-26T14:38:18.791Z,5.10
2019-05-26T14:43:26.379Z,4.88
2019-05-26T14:48:34.046Z,5.07
2019-05-26T14:53:41.642Z,4.75
2019-05-26T14:58:49.335Z,4.72
2019-05-26T15:03:56.921Z,4.69
2019-05-26T15:09:04.597Z,5.12
2019-05-26T15:14:12.221Z,5.00
2019-05-26T15:19:19.877Z,4.81
2019-05-26T15:24:27.639Z,4.99
2019-05-26T15:29:35.203Z,5.03
2019-05-26T15:34:42.796Z,4.69
2019-05-26T15:39:50.471Z,4.52
2019-05-26T15:44:58.093Z,4.72
2019-05-26T15:50:05.773Z,4.72
2019-05-26T15:55:13.385Z,4.81
2019-05-26T16:00:21.067Z,4.87
2019-05-26T16:05:28.694Z,4.78
2019-05-26T16:10:36.354Z,4.68
2019-05-26T16:15:43.958Z,4.78
2019-05-26T16:21:02.679Z,4.62
2019-05-26T16:25:58.864Z,4.81
2019-05-26T16:31:06.497Z,4.38
2019-05-26T16:36:14.065Z,4.70
2019-05-26T16:41:21.730Z,4.75
2019-05-26T16:46:29.335Z,4.61
2019-05-26T16:51:36.995Z,4.92
2019-05-26T16:56:44.602Z,4.90
2019-05-26T17:01:52.245Z,5.01
2019-05-26T17:06:59.865Z,4.87
2019-05-26T17:12:07.567Z,5.01
2019-05-26T17:17:15.478Z,5.28
2019-05-26T17:22:22.829Z,5.80
2019-05-26T17:27:30.426Z,5.92
2019-05-26T17:32:38.076Z,5.36
2019-05-26T17:37:45.671Z,5.55
2019-05-26T17:42:53.710Z,5.50
2019-05-26T17:48:01.325Z,5.79
2019-05-26T17:53:08.998Z,5.18
2019-05-26T17:58:16.604Z,5.24
2019-05-26T18:03:24.307Z,4.95
2019-05-26T18:08:31.890Z,5.03
2019-05-26T18:13:39.754Z,4.94
2019-05-26T18:18:47.810Z,5.31
2019-05-26T18:23:55.503Z,4.86
2019-05-26T18:29:03.305Z,5.08
2019-05-26T18:34:10.919Z,5.33
2019-05-26T18:39:18.536Z,5.15
2019-05-26T18:44:26.236Z,5.19
2019-05-26T18:49:33.831Z,5.18
2019-05-26T18:54:41.519Z,4.97
2019-05-26T18:59:49.065Z,5.07
2019-05-26T19:04:56.752Z,5.17
2019-05-26T19:10:04.360Z,5.60
2019-05-26T19:15:12.181Z,5.30
2019-05-26T19:20:19.792Z,5.43
2019-05-26T19:25:27.686Z,5.05
2019-05-26T19:30:35.295Z,4.75
2019-05-26T19:35:43.005Z,4.47
2019-05-26T19:40:50.606Z,4.26
2019-05-26T19:45:58.304Z,4.16
2019-05-26T19:51:05.900Z,4.27
2019-05-26T19:56:13.613Z,4.01
2019-05-26T20:01:21.327Z,3.89
2019-05-26T20:06:28.993Z,3.99
2019-05-26T20:11:36.876Z,4.14
2019-05-26T20:16:44.522Z,3.99
2019-05-26T20:21:52.165Z,4.13
2019-05-26T20:26:59.770Z,4.06
2019-05-26T20:32:07.363Z,4.05
2019-05-26T20:37:15.594Z,4.21
2019-05-26T20:42:23.050Z,4.30
2019-05-26T20:47:30.783Z,4.21
2019-05-26T20:52:38.255Z,4.53
2019-05-26T20:57:45.937Z,4.53
2019-05-26T21:02:53.551Z,4.76
2019-05-26T21:08:01.246Z,4.65
2019-05-26T21:13:08.883Z,5.37
2019-05-26T21:18:16.536Z,5.71
2019-05-26T21:23:24.149Z,5.78
2019-05-26T21:28:31.817Z,6.17
2019-05-26T21:33:39.430Z,6.03
2019-05-26T21:38:47.063Z,6.20
2019-05-26T21:43:54.669Z,5.94
2019-05-26T21:49:02.331Z,5.99
2019-05-26T21:54:09.927Z,5.13
2019-05-26T21:59:17.565Z,4.37
2019-05-26T22:04:25.149Z,4.27
2019-05-26T22:09:32.781Z,3.83
2019-05-26T22:14:40.381Z,4.08
2019-05-26T22:19:48.065Z,3.82
2019-05-26T22:24:55.674Z,3.72
2019-05-26T22:30:03.333Z,3.85
2019-05-26T22:35:10.958Z,3.68
2019-05-26T22:40:18.611Z,3.55
2019-05-26T22:45:26.211Z,3.38
2019-05-26T22:50:33.877Z,3.25
2019-05-26T22:55:41.455Z,3.54
2019-05-26T23:00:49.138Z,3.79
2019-05-26T23:05:56.765Z,3.92
2019-05-26T23:11:04.383Z,3.88
2019-05-26T23:16:11.968Z,3.80
2019-05-26T23:21:19.613Z,4.02
2019-05-26T23:26:27.217Z,3.83
2019-05-26T23:31:34.879Z,3.72
2019-05-26T23:36:42.489Z,3.81
2019-05-26T23:41:50.215Z,3.81
2019-05-26T23:46:57.815Z,3.83
2019-05-26T23:52:05.468Z,4.17
2019-05-26T23:57:13.069Z,4.16
